sensor_id;sensor_type;location;lat;lon;timestamp;pressure;altitude;pressure_sealevel;temperature
73685;BMP280;61985;51.070;14.064;2022-08-19T00:01:31;97960.72;;;22.08
73685;BMP280;61985;51.070;14.064;2022-08-19T00:03:58;97966.44;;;22.10
73685;BMP280;61985;51.070;14.064;2022-08-19T00:06:25;97957.97;;;22.08
73685;BMP280;61985;51.070;14.064;2022-08-19T00:08:50;97968.34;;;22.15
73685;BMP280;61985;51.070;14.064;2022-08-19T00:11:17;97959.28;;;22.20
73685;BMP280;61985;51.070;14.064;2022-08-19T00:13:42;97971.72;;;22.21
73685;BMP280;61985;51.070;14.064;2022-08-19T00:16:08;97966.84;;;22.14
73685;BMP280;61985;51.070;14.064;2022-08-19T00:18:33;97966.00;;;22.06
73685;BMP280;61985;51.070;14.064;2022-08-19T00:20:59;97958.88;;;21.97
73685;BMP280;61985;51.070;14.064;2022-08-19T00:23:25;97963.19;;;21.92
73685;BMP280;61985;51.070;14.064;2022-08-19T00:25:51;97977.56;;;21.85
73685;BMP280;61985;51.070;14.064;2022-08-19T00:28:17;97972.91;;;21.80
73685;BMP280;61985;51.070;14.064;2022-08-19T00:30:43;97988.16;;;21.75
73685;BMP280;61985;51.070;14.064;2022-08-19T00:33:08;97982.13;;;21.77
73685;BMP280;61985;51.070;14.064;2022-08-19T00:35:33;97972.19;;;21.61
73685;BMP280;61985;51.070;14.064;2022-08-19T00:37:59;97974.88;;;21.47
73685;BMP280;61985;51.070;14.064;2022-08-19T00:40:25;97980.88;;;21.46
73685;BMP280;61985;51.070;14.064;2022-08-19T00:42:50;97986.19;;;21.38
73685;BMP280;61985;51.070;14.064;2022-08-19T00:45:25;97983.50;;;21.32
73685;BMP280;61985;51.070;14.064;2022-08-19T00:47:50;97978.84;;;21.27
73685;BMP280;61985;51.070;14.064;2022-08-19T00:50:18;97977.66;;;21.23
73685;BMP280;61985;51.070;14.064;2022-08-19T00:52:47;97980.22;;;21.21
73685;BMP280;61985;51.070;14.064;2022-08-19T00:55:19;97984.63;;;21.05
73685;BMP280;61985;51.070;14.064;2022-08-19T00:57:55;97977.47;;;21.02
73685;BMP280;61985;51.070;14.064;2022-08-19T01:00:24;97979.44;;;21.01
73685;BMP280;61985;51.070;14.064;2022-08-19T01:02:50;97981.28;;;20.93
73685;BMP280;61985;51.070;14.064;2022-08-19T01:05:18;97979.94;;;21.00
73685;BMP280;61985;51.070;14.064;2022-08-19T01:07:47;97977.50;;;20.96
73685;BMP280;61985;51.070;14.064;2022-08-19T01:10:16;97977.28;;;20.94
73685;BMP280;61985;51.070;14.064;2022-08-19T01:12:44;97988.47;;;20.96
73685;BMP280;61985;51.070;14.064;2022-08-19T01:15:12;97998.38;;;20.99
73685;BMP280;61985;51.070;14.064;2022-08-19T01:17:39;97986.19;;;21.00
73685;BMP280;61985;51.070;14.064;2022-08-19T01:20:07;97986.94;;;21.01
73685;BMP280;61985;51.070;14.064;2022-08-19T01:22:38;97998.31;;;21.05
73685;BMP280;61985;51.070;14.064;2022-08-19T01:25:05;98008.53;;;21.04
73685;BMP280;61985;51.070;14.064;2022-08-19T01:27:46;98000.47;;;20.93
73685;BMP280;61985;51.070;14.064;2022-08-19T01:30:26;97996.69;;;20.96
73685;BMP280;61985;51.070;14.064;2022-08-19T01:32:52;97989.44;;;20.99
73685;BMP280;61985;51.070;14.064;2022-08-19T01:35:19;98000.38;;;20.99
73685;BMP280;61985;51.070;14.064;2022-08-19T01:37:51;98003.88;;;20.99
73685;BMP280;61985;51.070;14.064;2022-08-19T01:40:18;98009.03;;;21.03
73685;BMP280;61985;51.070;14.064;2022-08-19T01:42:46;98006.09;;;21.01
73685;BMP280;61985;51.070;14.064;2022-08-19T01:45:12;98004.59;;;21.00
73685;BMP280;61985;51.070;14.064;2022-08-19T01:47:38;98007.59;;;21.02
73685;BMP280;61985;51.070;14.064;2022-08-19T01:50:05;98011.13;;;20.97
73685;BMP280;61985;51.070;14.064;2022-08-19T01:52:31;98006.09;;;21.01
73685;BMP280;61985;51.070;14.064;2022-08-19T01:54:56;98006.22;;;20.89
73685;BMP280;61985;51.070;14.064;2022-08-19T01:57:21;98004.91;;;20.96
73685;BMP280;61985;51.070;14.064;2022-08-19T01:59:47;98004.44;;;20.92
73685;BMP280;61985;51.070;14.064;2022-08-19T02:02:12;98004.16;;;20.96
73685;BMP280;61985;51.070;14.064;2022-08-19T02:04:38;97992.59;;;20.84
73685;BMP280;61985;51.070;14.064;2022-08-19T02:07:05;97984.56;;;20.86
73685;BMP280;61985;51.070;14.064;2022-08-19T02:09:31;97990.00;;;20.91
73685;BMP280;61985;51.070;14.064;2022-08-19T02:11:57;97996.22;;;20.92
73685;BMP280;61985;51.070;14.064;2022-08-19T02:14:23;97996.69;;;20.96
73685;BMP280;61985;51.070;14.064;2022-08-19T02:16:48;98005.94;;;20.93
73685;BMP280;61985;51.070;14.064;2022-08-19T02:19:14;98013.31;;;20.98
73685;BMP280;61985;51.070;14.064;2022-08-19T02:21:39;98013.47;;;20.87
73685;BMP280;61985;51.070;14.064;2022-08-19T02:24:05;98009.03;;;20.84
73685;BMP280;61985;51.070;14.064;2022-08-19T02:26:31;98002.22;;;20.90
73685;BMP280;61985;51.070;14.064;2022-08-19T02:28:57;98001.69;;;20.92
73685;BMP280;61985;51.070;14.064;2022-08-19T02:31:24;98002.16;;;20.96
73685;BMP280;61985;51.070;14.064;2022-08-19T02:33:50;97996.38;;;21.00
73685;BMP280;61985;51.070;14.064;2022-08-19T02:36:17;98001.56;;;21.03
73685;BMP280;61985;51.070;14.064;2022-08-19T02:38:44;98001.81;;;21.05
73685;BMP280;61985;51.070;14.064;2022-08-19T02:41:19;97990.25;;;21.12
73685;BMP280;61985;51.070;14.064;2022-08-19T02:43:45;97993.13;;;21.01
73685;BMP280;61985;51.070;14.064;2022-08-19T02:46:17;97994.41;;;21.00
73685;BMP280;61985;51.070;14.064;2022-08-19T02:48:43;97988.66;;;20.98
73685;BMP280;61985;51.070;14.064;2022-08-19T02:51:16;97994.75;;;20.91
73685;BMP280;61985;51.070;14.064;2022-08-19T02:53:41;97983.81;;;20.91
73685;BMP280;61985;51.070;14.064;2022-08-19T02:56:07;97993.94;;;20.96
73685;BMP280;61985;51.070;14.064;2022-08-19T02:58:32;98002.81;;;21.02
73685;BMP280;61985;51.070;14.064;2022-08-19T03:00:58;98012.78;;;21.05
73685;BMP280;61985;51.070;14.064;2022-08-19T03:03:23;97997.66;;;20.99
73685;BMP280;61985;51.070;14.064;2022-08-19T03:05:48;98005.38;;;21.00
73685;BMP280;61985;51.070;14.064;2022-08-19T03:08:14;98003.19;;;20.93
73685;BMP280;61985;51.070;14.064;2022-08-19T03:10:45;98011.56;;;21.01
73685;BMP280;61985;51.070;14.064;2022-08-19T03:13:16;98016.88;;;20.93
73685;BMP280;61985;51.070;14.064;2022-08-19T03:15:43;98021.28;;;21.02
73685;BMP280;61985;51.070;14.064;2022-08-19T03:18:09;98008.09;;;21.00
73685;BMP280;61985;51.070;14.064;2022-08-19T03:20:43;98009.34;;;20.99
73685;BMP280;61985;51.070;14.064;2022-08-19T03:23:10;98013.63;;;20.94
73685;BMP280;61985;51.070;14.064;2022-08-19T03:25:40;98018.38;;;20.94
73685;BMP280;61985;51.070;14.064;2022-08-19T03:28:08;98013.47;;;20.87
73685;BMP280;61985;51.070;14.064;2022-08-19T03:30:33;98019.91;;;20.89
73685;BMP280;61985;51.070;14.064;2022-08-19T03:32:59;98022.06;;;20.97
73685;BMP280;61985;51.070;14.064;2022-08-19T03:35:24;98027.00;;;20.98
73685;BMP280;61985;51.070;14.064;2022-08-19T03:40:57;98035.84;;;20.91
73685;BMP280;61985;51.070;14.064;2022-08-19T03:43:22;98029.25;;;21.00
73685;BMP280;61985;51.070;14.064;2022-08-19T03:46:00;98022.84;;;20.97
73685;BMP280;61985;51.070;14.064;2022-08-19T03:48:26;98015.38;;;20.92
73685;BMP280;61985;51.070;14.064;2022-08-19T03:50:51;98015.13;;;20.96
73685;BMP280;61985;51.070;14.064;2022-08-19T03:53:16;98022.84;;;20.97
73685;BMP280;61985;51.070;14.064;2022-08-19T03:55:42;98022.56;;;20.95
73685;BMP280;61985;51.070;14.064;2022-08-19T03:58:07;98022.56;;;20.95
73685;BMP280;61985;51.070;14.064;2022-08-19T04:00:33;98031.28;;;20.93
73685;BMP280;61985;51.070;14.064;2022-08-19T04:02:58;98032.31;;;20.90
73685;BMP280;61985;51.070;14.064;2022-08-19T04:05:26;98032.84;;;20.89
73685;BMP280;61985;51.070;14.064;2022-08-19T04:07:53;98030.78;;;20.95
73685;BMP280;61985;51.070;14.064;2022-08-19T04:10:18;98030.50;;;20.99
73685;BMP280;61985;51.070;14.064;2022-08-19T04:12:44;98034.44;;;21.03
73685;BMP280;61985;51.070;14.064;2022-08-19T04:15:09;98037.13;;;21.09
73685;BMP280;61985;51.070;14.064;2022-08-19T04:17:35;98035.13;;;21.09
73685;BMP280;61985;51.070;14.064;2022-08-19T04:20:00;98033.13;;;21.10
73685;BMP280;61985;51.070;14.064;2022-08-19T04:22:25;98024.81;;;21.15
73685;BMP280;61985;51.070;14.064;2022-08-19T04:24:51;98020.25;;;21.24
73685;BMP280;61985;51.070;14.064;2022-08-19T04:27:16;98017.75;;;21.26
73685;BMP280;61985;51.070;14.064;2022-08-19T04:29:41;98010.34;;;21.21
73685;BMP280;61985;51.070;14.064;2022-08-19T04:32:07;98009.66;;;21.14
73685;BMP280;61985;51.070;14.064;2022-08-19T04:34:32;98024.38;;;21.11
73685;BMP280;61985;51.070;14.064;2022-08-19T04:36:58;98028.06;;;20.95
73685;BMP280;61985;51.070;14.064;2022-08-19T04:39:29;98028.31;;;20.97
73685;BMP280;61985;51.070;14.064;2022-08-19T04:42:14;98029.50;;;21.02
73685;BMP280;61985;51.070;14.064;2022-08-19T04:45:17;98011.97;;;20.86
73685;BMP280;61985;51.070;14.064;2022-08-19T04:47:43;98012.44;;;20.90
73685;BMP280;61985;51.070;14.064;2022-08-19T04:50:10;98023.25;;;20.77
73685;BMP280;61985;51.070;14.064;2022-08-19T04:52:36;98022.34;;;20.68
73685;BMP280;61985;51.070;14.064;2022-08-19T04:55:02;98021.72;;;20.57
73685;BMP280;61985;51.070;14.064;2022-08-19T05:10:23;98044.59;;;20.59
73685;BMP280;61985;51.070;14.064;2022-08-19T05:12:48;98046.13;;;20.55
73685;BMP280;61985;51.070;14.064;2022-08-19T05:15:13;98042.41;;;20.52
73685;BMP280;61985;51.070;14.064;2022-08-19T05:18:14;98048.41;;;20.50
73685;BMP280;61985;51.070;14.064;2022-08-19T05:21:15;98070.78;;;20.55
73685;BMP280;61985;51.070;14.064;2022-08-19T05:24:17;98067.50;;;20.56
73685;BMP280;61985;51.070;14.064;2022-08-19T05:26:46;98078.50;;;20.50
73685;BMP280;61985;51.070;14.064;2022-08-19T05:29:14;98073.28;;;20.47
73685;BMP280;61985;51.070;14.064;2022-08-19T05:31:39;98087.06;;;20.36
73685;BMP280;61985;51.070;14.064;2022-08-19T05:34:05;98084.06;;;20.34
73685;BMP280;61985;51.070;14.064;2022-08-19T05:36:36;98078.94;;;20.24
73685;BMP280;61985;51.070;14.064;2022-08-19T05:39:03;98075.94;;;20.28
73685;BMP280;61985;51.070;14.064;2022-08-19T05:41:29;98086.63;;;20.26
73685;BMP280;61985;51.070;14.064;2022-08-19T05:43:56;98084.41;;;20.24
73685;BMP280;61985;51.070;14.064;2022-08-19T05:46:22;98088.91;;;20.22
73685;BMP280;61985;51.070;14.064;2022-08-19T05:48:48;98089.34;;;20.26
73685;BMP280;61985;51.070;14.064;2022-08-19T05:51:14;98104.53;;;20.33
73685;BMP280;61985;51.070;14.064;2022-08-19T05:53:41;98109.41;;;20.45
73685;BMP280;61985;51.070;14.064;2022-08-19T05:56:19;98113.88;;;20.43
73685;BMP280;61985;51.070;14.064;2022-08-19T05:58:57;98116.16;;;20.39
73685;BMP280;61985;51.070;14.064;2022-08-19T06:01:32;98122.16;;;20.37
73685;BMP280;61985;51.070;14.064;2022-08-19T06:03:58;98132.63;;;20.33
73685;BMP280;61985;51.070;14.064;2022-08-19T06:06:24;98130.38;;;20.32
73685;BMP280;61985;51.070;14.064;2022-08-19T06:08:49;98140.84;;;20.27
73685;BMP280;61985;51.070;14.064;2022-08-19T06:13:45;98154.56;;;20.22
73685;BMP280;61985;51.070;14.064;2022-08-19T06:16:13;98158.75;;;20.28
73685;BMP280;61985;51.070;14.064;2022-08-19T06:18:46;98177.16;;;20.28
73685;BMP280;61985;51.070;14.064;2022-08-19T06:21:11;98179.69;;;20.20
73685;BMP280;61985;51.070;14.064;2022-08-19T06:23:42;98186.69;;;20.16
73685;BMP280;61985;51.070;14.064;2022-08-19T06:26:11;98196.41;;;20.11
73685;BMP280;61985;51.070;14.064;2022-08-19T06:29:02;98194.66;;;20.08
73685;BMP280;61985;51.070;14.064;2022-08-19T06:31:45;98199.44;;;20.02
73685;BMP280;61985;51.070;14.064;2022-08-19T06:34:11;98200.91;;;20.03
73685;BMP280;61985;51.070;14.064;2022-08-19T06:36:40;98204.41;;;19.98
73685;BMP280;61985;51.070;14.064;2022-08-19T06:39:10;98207.41;;;19.94
73685;BMP280;61985;51.070;14.064;2022-08-19T06:41:38;98212.81;;;20.00
73685;BMP280;61985;51.070;14.064;2022-08-19T06:44:04;98209.88;;;19.98
73685;BMP280;61985;51.070;14.064;2022-08-19T06:46:30;98204.69;;;19.89
73685;BMP280;61985;51.070;14.064;2022-08-19T06:48:56;98208.91;;;19.90
73685;BMP280;61985;51.070;14.064;2022-08-19T06:51:22;98210.88;;;19.89
73685;BMP280;61985;51.070;14.064;2022-08-19T06:53:50;98216.59;;;19.85
73685;BMP280;61985;51.070;14.064;2022-08-19T06:56:26;98216.13;;;19.87
73685;BMP280;61985;51.070;14.064;2022-08-19T06:59:00;98224.31;;;19.87
73685;BMP280;61985;51.070;14.064;2022-08-19T07:01:55;98227.53;;;19.85
73685;BMP280;61985;51.070;14.064;2022-08-19T07:04:26;98241.25;;;19.80
73685;BMP280;61985;51.070;14.064;2022-08-19T07:07:00;98235.75;;;19.80
73685;BMP280;61985;51.070;14.064;2022-08-19T07:09:29;98233.78;;;19.75
73685;BMP280;61985;51.070;14.064;2022-08-19T07:11:57;98235.50;;;19.72
73685;BMP280;61985;51.070;14.064;2022-08-19T07:14:25;98233.06;;;19.74
73685;BMP280;61985;51.070;14.064;2022-08-19T07:16:53;98232.28;;;19.74
73685;BMP280;61985;51.070;14.064;2022-08-19T07:19:21;98230.78;;;19.78
73685;BMP280;61985;51.070;14.064;2022-08-19T07:21:54;98237.28;;;19.81
73685;BMP280;61985;51.070;14.064;2022-08-19T07:24:25;98237.75;;;19.79
73685;BMP280;61985;51.070;14.064;2022-08-19T07:26:57;98242.97;;;19.83
73685;BMP280;61985;51.070;14.064;2022-08-19T07:29:29;98252.88;;;19.86
73685;BMP280;61985;51.070;14.064;2022-08-19T07:31:56;98248.91;;;19.81
73685;BMP280;61985;51.070;14.064;2022-08-19T07:34:24;98247.41;;;19.86
73685;BMP280;61985;51.070;14.064;2022-08-19T07:36:50;98255.16;;;19.82
73685;BMP280;61985;51.070;14.064;2022-08-19T07:39:31;98249.66;;;19.87
73685;BMP280;61985;51.070;14.064;2022-08-19T07:41:59;98248.66;;;19.91
73685;BMP280;61985;51.070;14.064;2022-08-19T07:44:25;98244.47;;;19.90
73685;BMP280;61985;51.070;14.064;2022-08-19T07:46:53;98242.69;;;19.92
73685;BMP280;61985;51.070;14.064;2022-08-19T07:49:20;98252.88;;;19.92
73685;BMP280;61985;51.070;14.064;2022-08-19T07:51:48;98255.34;;;19.95
73685;BMP280;61985;51.070;14.064;2022-08-19T07:54:25;98251.09;;;20.00
73685;BMP280;61985;51.070;14.064;2022-08-19T07:56:54;98244.41;;;20.01
73685;BMP280;61985;51.070;14.064;2022-08-19T07:59:23;98261.03;;;20.08
73685;BMP280;61985;51.070;14.064;2022-08-19T08:01:51;98254.81;;;20.08
73685;BMP280;61985;51.070;14.064;2022-08-19T08:04:18;98251.84;;;20.06
73685;BMP280;61985;51.070;14.064;2022-08-19T08:07:03;98257.06;;;20.10
73685;BMP280;61985;51.070;14.064;2022-08-19T08:09:47;98274.72;;;20.08
73685;BMP280;61985;51.070;14.064;2022-08-19T08:12:26;98269.50;;;20.05
73685;BMP280;61985;51.070;14.064;2022-08-19T08:14:56;98273.97;;;20.08
73685;BMP280;61985;51.070;14.064;2022-08-19T08:17:28;98281.19;;;20.11
73685;BMP280;61985;51.070;14.064;2022-08-19T08:19:53;98276.69;;;20.14
73685;BMP280;61985;51.070;14.064;2022-08-19T08:22:21;98271.00;;;20.12
73685;BMP280;61985;51.070;14.064;2022-08-19T08:25:15;98275.94;;;20.07
73685;BMP280;61985;51.070;14.064;2022-08-19T08:27:43;98283.94;;;20.11
73685;BMP280;61985;51.070;14.064;2022-08-19T08:30:14;98285.16;;;20.10
73685;BMP280;61985;51.070;14.064;2022-08-19T08:32:40;98283.19;;;20.05
73685;BMP280;61985;51.070;14.064;2022-08-19T08:35:09;98289.88;;;20.04
73685;BMP280;61985;51.070;14.064;2022-08-19T08:37:35;98284.94;;;20.02
73685;BMP280;61985;51.070;14.064;2022-08-19T08:40:18;98296.09;;;20.10
73685;BMP280;61985;51.070;14.064;2022-08-19T08:42:55;98292.88;;;20.06
73685;BMP280;61985;51.070;14.064;2022-08-19T08:45:26;98292.63;;;20.04
73685;BMP280;61985;51.070;14.064;2022-08-19T08:47:53;98284.69;;;19.95
73685;BMP280;61985;51.070;14.064;2022-08-19T08:52:56;98276.75;;;20.02
73685;BMP280;61985;51.070;14.064;2022-08-19T08:55:28;98285.38;;;20.12
73685;BMP280;61985;51.070;14.064;2022-08-19T09:00:37;98290.34;;;20.14
73685;BMP280;61985;51.070;14.064;2022-08-19T09:03:08;98288.38;;;20.08
73685;BMP280;61985;51.070;14.064;2022-08-19T12:22:59;98357.09;;;22.44
73685;BMP280;61985;51.070;14.064;2022-08-19T12:25:24;98358.69;;;22.40
73685;BMP280;61985;51.070;14.064;2022-08-19T12:27:58;98359.84;;;22.26
73685;BMP280;61985;51.070;14.064;2022-08-19T12:30:26;98362.13;;;22.21
73685;BMP280;61985;51.070;14.064;2022-08-19T12:32:55;98362.41;;;22.18
73685;BMP280;61985;51.070;14.064;2022-08-19T12:35:26;98363.91;;;22.19
73685;BMP280;61985;51.070;14.064;2022-08-19T12:38:01;98363.13;;;22.24
73685;BMP280;61985;51.070;14.064;2022-08-19T15:38:57;98355.63;;;22.43
73685;BMP280;61985;51.070;14.064;2022-08-19T15:41:25;98348.81;;;22.31
73685;BMP280;61985;51.070;14.064;2022-08-19T15:44:10;98361.84;;;22.25
73685;BMP280;61985;51.070;14.064;2022-08-19T15:46:37;98356.03;;;22.10
73685;BMP280;61985;51.070;14.064;2022-08-19T15:49:04;98359.34;;;22.02
73685;BMP280;61985;51.070;14.064;2022-08-19T15:51:32;98349.91;;;21.98
73685;BMP280;61985;51.070;14.064;2022-08-19T15:54:00;98348.41;;;21.97
73685;BMP280;61985;51.070;14.064;2022-08-19T15:56:26;98338.47;;;21.94
73685;BMP280;61985;51.070;14.064;2022-08-19T15:59:12;98337.16;;;22.00
73685;BMP280;61985;51.070;14.064;2022-08-19T16:01:56;98328.47;;;21.96
73685;BMP280;61985;51.070;14.064;2022-08-19T16:04:40;98342.41;;;21.98
73685;BMP280;61985;51.070;14.064;2022-08-19T16:07:24;98346.50;;;21.92
73685;BMP280;61985;51.070;14.064;2022-08-19T16:10:08;98349.78;;;21.85
73685;BMP280;61985;51.070;14.064;2022-08-19T16:12:45;98343.91;;;21.75
73685;BMP280;61985;51.070;14.064;2022-08-19T16:15:49;98345.13;;;21.79
73685;BMP280;61985;51.070;14.064;2022-08-19T16:18:21;98352.94;;;21.70
73685;BMP280;61985;51.070;14.064;2022-08-19T16:20:49;98356.34;;;21.76
73685;BMP280;61985;51.070;14.064;2022-08-19T16:23:15;98356.09;;;21.79
73685;BMP280;61985;51.070;14.064;2022-08-19T16:25:43;98350.13;;;21.75
73685;BMP280;61985;51.070;14.064;2022-08-19T16:28:08;98351.56;;;21.82
73685;BMP280;61985;51.070;14.064;2022-08-19T16:30:38;98355.84;;;21.77
73685;BMP280;61985;51.070;14.064;2022-08-19T16:33:04;98352.06;;;21.80
73685;BMP280;61985;51.070;14.064;2022-08-19T16:35:30;98360.56;;;21.77
73685;BMP280;61985;51.070;14.064;2022-08-19T16:37:55;98353.38;;;21.74
73685;BMP280;61985;51.070;14.064;2022-08-19T16:40:21;98341.66;;;21.73
73685;BMP280;61985;51.070;14.064;2022-08-19T16:42:46;98338.19;;;21.73
73685;BMP280;61985;51.070;14.064;2022-08-19T16:45:11;98355.00;;;21.64
73685;BMP280;61985;51.070;14.064;2022-08-19T16:47:45;98350.28;;;21.58
73685;BMP280;61985;51.070;14.064;2022-08-19T16:50:21;98343.31;;;21.57
73685;BMP280;61985;51.070;14.064;2022-08-19T16:52:49;98330.31;;;21.64
73685;BMP280;61985;51.070;14.064;2022-08-19T16:55:15;98320.88;;;21.59
73685;BMP280;61985;51.070;14.064;2022-08-19T16:57:47;98328.94;;;21.51
73685;BMP280;61985;51.070;14.064;2022-08-19T17:00:13;98332.66;;;21.48
73685;BMP280;61985;51.070;14.064;2022-08-19T17:02:39;98341.94;;;21.40
73685;BMP280;61985;51.070;14.064;2022-08-19T17:05:06;98339.75;;;21.32
73685;BMP280;61985;51.070;14.064;2022-08-19T17:07:40;98337.78;;;21.33
73685;BMP280;61985;51.070;14.064;2022-08-19T17:10:16;98345.22;;;21.38
73685;BMP280;61985;51.070;14.064;2022-08-19T17:12:41;98354.97;;;21.33
73685;BMP280;61985;51.070;14.064;2022-08-19T17:15:15;98363.69;;;21.32
73685;BMP280;61985;51.070;14.064;2022-08-19T17:17:44;98367.44;;;21.29
73685;BMP280;61985;51.070;14.064;2022-08-19T17:20:09;98369.16;;;21.32
73685;BMP280;61985;51.070;14.064;2022-08-19T17:22:37;98365.19;;;21.33
73685;BMP280;61985;51.070;14.064;2022-08-19T17:25:03;98362.94;;;21.31
73685;BMP280;61985;51.070;14.064;2022-08-19T17:27:31;98367.69;;;21.31
73685;BMP280;61985;51.070;14.064;2022-08-19T17:29:56;98364.50;;;21.27
73685;BMP280;61985;51.070;14.064;2022-08-19T17:32:24;98352.25;;;21.28
73685;BMP280;61985;51.070;14.064;2022-08-19T17:34:51;98347.78;;;21.25
73685;BMP280;61985;51.070;14.064;2022-08-19T17:37:18;98351.09;;;21.18
73685;BMP280;61985;51.070;14.064;2022-08-19T17:39:43;98345.63;;;21.18
73685;BMP280;61985;51.070;14.064;2022-08-19T17:42:09;98348.56;;;21.25
73685;BMP280;61985;51.070;14.064;2022-08-19T17:44:46;98343.06;;;21.25
73685;BMP280;61985;51.070;14.064;2022-08-19T17:47:24;98343.81;;;21.26
73685;BMP280;61985;51.070;14.064;2022-08-19T17:49:50;98353.03;;;21.23
73685;BMP280;61985;51.070;14.064;2022-08-19T17:52:16;98359.78;;;21.22
73685;BMP280;61985;51.070;14.064;2022-08-19T17:54:42;98363.56;;;21.13
73685;BMP280;61985;51.070;14.064;2022-08-19T17:57:08;98380.47;;;21.17
73685;BMP280;61985;51.070;14.064;2022-08-19T17:59:36;98394.72;;;21.10
73685;BMP280;61985;51.070;14.064;2022-08-19T18:02:06;98399.94;;;21.08
73685;BMP280;61985;51.070;14.064;2022-08-19T18:04:40;98402.94;;;21.10
73685;BMP280;61985;51.070;14.064;2022-08-19T18:07:14;98407.94;;;21.06
73685;BMP280;61985;51.070;14.064;2022-08-19T18:09:45;98401.47;;;21.03
73685;BMP280;61985;51.070;14.064;2022-08-19T18:12:14;98421.94;;;20.97
73685;BMP280;61985;51.070;14.064;2022-08-19T18:14:42;98420.19;;;20.99
73685;BMP280;61985;51.070;14.064;2022-08-19T18:17:11;98430.13;;;21.02
73685;BMP280;61985;51.070;14.064;2022-08-19T18:19:45;98439.59;;;21.01
73685;BMP280;61985;51.070;14.064;2022-08-19T18:22:42;98448.56;;;21.02
73685;BMP280;61985;51.070;14.064;2022-08-19T18:25:37;98460.28;;;20.97
73685;BMP280;61985;51.070;14.064;2022-08-19T18:28:03;98471.22;;;20.97
73685;BMP280;61985;51.070;14.064;2022-08-19T18:30:49;98477.63;;;21.10
73685;BMP280;61985;51.070;14.064;2022-08-19T18:33:19;98472.94;;;21.05
73685;BMP280;61985;51.070;14.064;2022-08-19T18:35:54;98478.44;;;21.05
73685;BMP280;61985;51.070;14.064;2022-08-19T18:38:22;98468.75;;;20.99
73685;BMP280;61985;51.070;14.064;2022-08-19T18:41:07;98469.25;;;20.91
73685;BMP280;61985;51.070;14.064;2022-08-19T18:43:51;98467.75;;;20.96
73685;BMP280;61985;51.070;14.064;2022-08-19T18:46:36;98463.25;;;20.99
73685;BMP280;61985;51.070;14.064;2022-08-19T18:49:29;98455.06;;;20.93
73685;BMP280;61985;51.070;14.064;2022-08-19T18:51:57;98456.56;;;20.94
73685;BMP280;61985;51.070;14.064;2022-08-19T18:54:31;98453.81;;;20.94
73685;BMP280;61985;51.070;14.064;2022-08-19T18:57:04;98447.63;;;20.77
73685;BMP280;61985;51.070;14.064;2022-08-19T18:59:33;98455.63;;;20.75
73685;BMP280;61985;51.070;14.064;2022-08-19T19:01:59;98443.94;;;20.74
73685;BMP280;61985;51.070;14.064;2022-08-19T19:04:30;98456.59;;;20.83
73685;BMP280;61985;51.070;14.064;2022-08-19T19:07:03;98443.88;;;20.91
73685;BMP280;61985;51.070;14.064;2022-08-19T19:09:29;98439.41;;;20.77
73685;BMP280;61985;51.070;14.064;2022-08-19T19:12:00;98440.72;;;20.70
73685;BMP280;61985;51.070;14.064;2022-08-19T19:14:31;98429.50;;;20.68
73685;BMP280;61985;51.070;14.064;2022-08-19T19:17:02;98433.50;;;20.67
73685;BMP280;61985;51.070;14.064;2022-08-19T19:19:42;98438.47;;;20.68
73685;BMP280;61985;51.070;14.064;2022-08-19T19:22:17;98434.25;;;20.67
73685;BMP280;61985;51.070;14.064;2022-08-19T19:24:49;98430.25;;;20.68
73685;BMP280;61985;51.070;14.064;2022-08-19T19:27:21;98424.56;;;20.66
73685;BMP280;61985;51.070;14.064;2022-08-19T19:29:53;98423.28;;;20.67
73685;BMP280;61985;51.070;14.064;2022-08-19T19:32:26;98426.28;;;20.69
73685;BMP280;61985;51.070;14.064;2022-08-19T19:34:58;98424.53;;;20.72
73685;BMP280;61985;51.070;14.064;2022-08-19T19:37:29;98433.22;;;20.70
73685;BMP280;61985;51.070;14.064;2022-08-19T19:39:59;98440.47;;;20.68
73685;BMP280;61985;51.070;14.064;2022-08-19T19:42:37;98435.97;;;20.70
73685;BMP280;61985;51.070;14.064;2022-08-19T19:45:09;98446.66;;;20.68
73685;BMP280;61985;51.070;14.064;2022-08-19T19:47:40;98444.22;;;20.59
73685;BMP280;61985;51.070;14.064;2022-08-19T19:50:09;98452.44;;;20.54
73685;BMP280;61985;51.070;14.064;2022-08-19T19:52:38;98456.94;;;20.45
73685;BMP280;61985;51.070;14.064;2022-08-19T19:55:04;98465.16;;;20.45
73685;BMP280;61985;51.070;14.064;2022-08-19T19:58:10;98466.16;;;20.48
73685;BMP280;61985;51.070;14.064;2022-08-19T20:00:39;98451.91;;;20.55
73685;BMP280;61985;51.070;14.064;2022-08-19T20:03:04;98435.28;;;20.53
73685;BMP280;61985;51.070;14.064;2022-08-19T20:05:30;98431.81;;;20.53
73685;BMP280;61985;51.070;14.064;2022-08-19T20:07:59;98424.09;;;20.51
73685;BMP280;61985;51.070;14.064;2022-08-19T20:10:58;98427.34;;;20.44
73685;BMP280;61985;51.070;14.064;2022-08-19T20:13:27;98443.75;;;20.44
73685;BMP280;61985;51.070;14.064;2022-08-19T20:35:36;98489.31;;;20.24
73685;BMP280;61985;51.070;14.064;2022-08-19T20:38:16;98485.06;;;20.18
73685;BMP280;61985;51.070;14.064;2022-08-19T20:40:47;98496.53;;;20.16
73685;BMP280;61985;51.070;14.064;2022-08-19T20:45:54;98481.88;;;20.25
73685;BMP280;61985;51.070;14.064;2022-08-19T20:50:59;98456.72;;;20.21
73685;BMP280;61985;51.070;14.064;2022-08-19T20:53:27;98461.72;;;20.11
73685;BMP280;61985;51.070;14.064;2022-08-19T20:55:55;98463.94;;;20.07
73685;BMP280;61985;51.070;14.064;2022-08-19T20:58:36;98459.97;;;20.08
73685;BMP280;61985;51.070;14.064;2022-08-19T21:01:10;98471.38;;;20.12
73685;BMP280;61985;51.070;14.064;2022-08-19T21:03:38;98465.19;;;20.12
73685;BMP280;61985;51.070;14.064;2022-08-19T21:06:27;98463.16;;;20.12
73685;BMP280;61985;51.070;14.064;2022-08-19T21:08:55;98458.72;;;20.15
73685;BMP280;61985;51.070;14.064;2022-08-19T21:11:21;98455.72;;;20.01
73685;BMP280;61985;51.070;14.064;2022-08-19T21:13:46;98449.53;;;20.01
73685;BMP280;61985;51.070;14.064;2022-08-19T21:16:12;98444.81;;;19.96
73685;BMP280;61985;51.070;14.064;2022-08-19T21:18:38;98457.47;;;20.04